createdAt,value
2018-09-19T00:00:34.026Z,11.43
2018-09-19T00:02:37.572Z,12.80
2018-09-19T00:04:41.465Z,11.33
2018-09-19T00:06:45.048Z,12.80
2018-09-19T00:08:48.556Z,10.63
2018-09-19T00:10:52.084Z,11.47
2018-09-19T00:12:55.609Z,12.43
2018-09-19T00:14:59.186Z,12.00
2018-09-19T00:17:02.695Z,11.20
2018-09-19T00:19:06.256Z,12.77
2018-09-19T00:21:09.814Z,12.23
2018-09-19T00:23:13.337Z,10.50
2018-09-19T00:25:16.865Z,11.87
2018-09-19T00:27:20.441Z,11.10
2018-09-19T00:29:23.988Z,11.00
2018-09-19T00:31:27.526Z,10.90
2018-09-19T00:33:31.105Z,11.47
2018-09-19T00:35:34.627Z,12.07
2018-09-19T00:37:38.198Z,11.40
2018-09-19T00:39:41.704Z,11.53
2018-09-19T00:41:45.306Z,10.97
2018-09-19T00:43:49.017Z,10.90
2018-09-19T00:45:52.497Z,11.67
2018-09-19T00:47:56.438Z,11.63
2018-09-19T00:49:59.909Z,10.37
2018-09-19T00:52:03.505Z,11.03
2018-09-19T00:54:07.029Z,11.07
2018-09-19T00:56:10.543Z,10.43
2018-09-19T00:58:14.133Z,11.37
2018-09-19T01:00:18.235Z,9.33
2018-09-19T01:02:21.955Z,10.07
2018-09-19T01:04:25.455Z,12.83
2018-09-19T01:06:29.020Z,10.07
2018-09-19T01:08:32.627Z,9.93
2018-09-19T01:10:36.299Z,9.50
2018-09-19T01:12:40.238Z,10.50
2018-09-19T01:14:43.821Z,8.83
2018-09-19T01:16:47.729Z,10.20
2018-09-19T01:18:51.265Z,9.10
2018-09-19T01:20:54.820Z,10.73
2018-09-19T01:22:58.385Z,12.90
2018-09-19T01:25:01.982Z,11.67
2018-09-19T01:27:05.959Z,9.80
2018-09-19T01:29:09.521Z,10.30
2018-09-19T01:31:13.043Z,9.23
2018-09-19T01:33:16.591Z,10.20
2018-09-19T01:35:20.133Z,11.40
2018-09-19T01:37:23.775Z,9.30
2018-09-19T01:39:27.337Z,8.93
2018-09-19T01:41:30.810Z,9.97
2018-09-19T01:43:34.558Z,9.13
2018-09-19T01:45:38.105Z,8.87
2018-09-19T01:47:41.704Z,10.30
2018-09-19T01:49:45.244Z,8.73
2018-09-19T01:51:52.941Z,8.97
2018-09-19T01:53:56.769Z,9.87
2018-09-19T01:56:00.261Z,8.33
2018-09-19T01:58:03.772Z,8.60
2018-09-19T02:00:07.382Z,8.23
2018-09-19T02:02:10.922Z,8.13
2018-09-19T02:04:14.441Z,8.30
2018-09-19T02:06:18.014Z,9.40
2018-09-19T02:08:21.613Z,8.93
2018-09-19T02:10:25.136Z,11.23
2018-09-19T02:12:28.670Z,8.80
2018-09-19T02:14:32.228Z,9.00
2018-09-19T02:16:35.767Z,8.07
2018-09-19T02:18:39.568Z,10.13
2018-09-19T02:20:43.046Z,8.73
2018-09-19T02:22:46.656Z,10.93
2018-09-19T02:24:50.236Z,8.43
2018-09-19T02:26:53.840Z,10.53
2018-09-19T02:28:57.406Z,9.13
2018-09-19T02:31:00.948Z,8.90
2018-09-19T02:33:04.520Z,9.60
2018-09-19T02:35:08.209Z,9.90
2018-09-19T02:37:11.758Z,9.80
2018-09-19T02:39:15.291Z,11.70
2018-09-19T02:41:19.104Z,11.90
2018-09-19T02:43:22.618Z,10.50
2018-09-19T02:45:26.151Z,9.67
2018-09-19T02:47:29.705Z,10.17
2018-09-19T02:49:33.221Z,10.00
2018-09-19T02:51:36.713Z,11.00
2018-09-19T02:53:40.313Z,11.83
2018-09-19T02:55:43.879Z,10.30
2018-09-19T02:57:47.460Z,10.40
2018-09-19T02:59:51.132Z,11.93
2018-09-19T03:01:55.702Z,11.20
2018-09-19T03:03:59.509Z,11.63
2018-09-19T03:06:03.062Z,15.83
2018-09-19T03:08:06.691Z,10.63
2018-09-19T03:10:10.250Z,12.70
2018-09-19T03:12:13.832Z,12.20
2018-09-19T03:14:17.383Z,10.40
2018-09-19T03:16:20.949Z,10.70
2018-09-19T03:18:24.478Z,10.27
2018-09-19T03:20:28.091Z,12.13
2018-09-19T03:22:31.674Z,10.63
2018-09-19T03:24:35.225Z,11.90
2018-09-19T03:26:38.782Z,17.47
2018-09-19T03:28:42.773Z,11.93
2018-09-19T03:30:46.336Z,11.33
2018-09-19T03:32:49.876Z,11.90
2018-09-19T03:34:53.507Z,11.00
2018-09-19T03:36:57.332Z,11.87
2018-09-19T03:39:00.869Z,14.20
2018-09-19T03:41:04.427Z,15.43
2018-09-19T03:43:08.058Z,12.60
2018-09-19T03:45:11.565Z,14.70
2018-09-19T03:47:15.095Z,11.53
2018-09-19T03:49:18.660Z,11.27
2018-09-19T03:51:22.273Z,12.60
2018-09-19T03:53:25.999Z,13.97
2018-09-19T03:55:29.626Z,11.33
2018-09-19T03:57:33.395Z,11.77
2018-09-19T03:59:36.875Z,12.83
2018-09-19T04:01:40.420Z,11.33
2018-09-19T04:03:43.981Z,11.30
2018-09-19T04:05:48.107Z,13.07
2018-09-19T04:07:51.608Z,10.83
2018-09-19T04:09:55.140Z,12.63
2018-09-19T04:11:58.718Z,11.63
2018-09-19T04:14:02.258Z,12.17
2018-09-19T04:16:06.170Z,11.37
2018-09-19T04:18:09.655Z,15.97
2018-09-19T04:20:13.230Z,12.33
2018-09-19T04:22:16.750Z,11.50
2018-09-19T04:24:20.330Z,12.67
2018-09-19T04:26:23.848Z,14.20
2018-09-19T04:28:27.397Z,12.07
2018-09-19T04:30:30.969Z,11.97
2018-09-19T04:32:34.669Z,12.83
2018-09-19T04:34:39.261Z,11.97
2018-09-19T04:36:43.347Z,13.13
2018-09-19T04:38:47.096Z,13.30
2018-09-19T04:40:50.809Z,15.93
2018-09-19T04:42:55.421Z,14.07
2018-09-19T04:44:59.258Z,14.40
2018-09-19T04:47:03.221Z,11.37
2018-09-19T04:49:08.392Z,12.93
2018-09-19T04:51:13.669Z,12.03
2018-09-19T04:53:17.527Z,11.17
2018-09-19T04:55:21.055Z,12.83
2018-09-19T04:57:24.769Z,13.83
2018-09-19T04:59:28.444Z,11.33
2018-09-19T05:01:32.640Z,12.20
2018-09-19T05:03:37.188Z,15.53
2018-09-19T05:05:41.658Z,15.03
2018-09-19T05:07:45.608Z,15.97
2018-09-19T05:09:49.778Z,15.10
2018-09-19T05:11:53.601Z,13.10
2018-09-19T05:14:02.447Z,13.87
2018-09-19T05:16:06.714Z,12.57
2018-09-19T05:18:10.435Z,12.57
2018-09-19T05:20:14.616Z,15.97
2018-09-19T05:22:18.802Z,14.07
2018-09-19T05:24:23.438Z,13.47
2018-09-19T05:26:27.355Z,14.17
2018-09-19T05:28:31.172Z,20.27
2018-09-19T05:30:35.697Z,12.40
2018-09-19T05:32:39.288Z,14.87
2018-09-19T05:34:43.807Z,13.00
2018-09-19T05:36:47.669Z,17.97
2018-09-19T05:38:51.823Z,12.73
2018-09-19T05:40:56.259Z,15.80
2018-09-19T05:42:59.885Z,13.57
2018-09-19T05:45:03.573Z,15.97
2018-09-19T05:47:10.251Z,13.03
2018-09-19T05:49:16.565Z,12.20
2018-09-19T05:51:20.326Z,12.87
2018-09-19T05:53:25.075Z,14.30
2018-09-19T05:55:29.741Z,14.03
2018-09-19T05:57:33.821Z,15.90
2018-09-19T05:59:38.183Z,13.03
2018-09-19T06:01:42.803Z,11.80
2018-09-19T06:03:47.031Z,13.33
2018-09-19T06:05:51.353Z,12.77
2018-09-19T06:07:55.887Z,13.50
2018-09-19T06:10:04.206Z,14.33
2018-09-19T06:12:10.022Z,15.57
2018-09-19T06:14:19.156Z,16.40
2018-09-19T06:16:23.791Z,13.87
2018-09-19T06:18:28.045Z,18.83
2018-09-19T06:20:31.927Z,14.03
2018-09-19T06:22:36.616Z,12.90
2018-09-19T06:24:42.737Z,10.70
2018-09-19T06:26:47.081Z,11.87
2018-09-19T06:28:51.905Z,9.33
2018-09-19T06:30:56.089Z,10.67
2018-09-19T06:33:43.705Z,10.60
2018-09-19T06:36:01.905Z,8.67
2018-09-19T06:38:30.028Z,12.63
2018-09-19T06:40:39.640Z,14.30
2018-09-19T06:42:52.901Z,8.13
2018-09-19T06:45:13.523Z,8.23
2018-09-19T06:50:20.758Z,9.77
2018-09-19T06:54:56.547Z,13.80
2018-09-19T06:57:00.990Z,8.17
2018-09-19T07:02:06.015Z,12.03
2018-09-19T07:04:22.772Z,9.50
2018-09-19T07:06:26.574Z,11.10
2018-09-19T07:08:30.792Z,9.90
2018-09-19T07:10:34.594Z,10.37
2018-09-19T07:12:38.639Z,10.80
2018-09-19T07:14:42.606Z,12.90
2018-09-19T07:16:48.645Z,9.77
2018-09-19T07:18:52.403Z,9.97
2018-09-19T07:20:56.500Z,7.90
2018-09-19T07:23:01.146Z,8.23
2018-09-19T07:25:46.428Z,12.93
2018-09-19T07:28:07.410Z,8.27
2018-09-19T07:30:42.401Z,9.60
2018-09-19T07:32:55.482Z,8.43
2018-09-19T07:35:09.063Z,8.80
2018-09-19T07:39:44.774Z,6.73
2018-09-19T07:41:50.083Z,8.33
2018-09-19T07:44:19.211Z,7.20
2018-09-19T07:46:24.717Z,10.13
2018-09-19T07:48:29.455Z,10.37
2018-09-19T07:50:36.166Z,8.97
2018-09-19T07:52:42.556Z,12.17
2018-09-19T07:57:37.796Z,10.67
2018-09-19T07:59:54.965Z,7.50
2018-09-19T08:02:12.975Z,9.40
2018-09-19T08:04:16.757Z,7.87
2018-09-19T08:06:20.873Z,7.97
2018-09-19T08:08:25.208Z,6.83
2018-09-19T08:10:32.690Z,10.73
2018-09-19T08:12:37.737Z,9.00
2018-09-19T08:14:42.957Z,6.00
2018-09-19T08:16:46.942Z,6.03
2018-09-19T08:18:51.511Z,6.50
2018-09-19T08:20:56.072Z,4.70
2018-09-19T08:23:00.424Z,5.27
2018-09-19T08:25:04.406Z,6.97
2018-09-19T08:27:09.838Z,5.47
2018-09-19T08:29:14.241Z,6.03
2018-09-19T08:31:19.740Z,5.70
2018-09-19T08:33:24.739Z,4.17
2018-09-19T08:35:28.985Z,4.90
2018-09-19T08:37:33.183Z,5.83
2018-09-19T08:39:38.087Z,5.42
2018-09-19T08:41:42.247Z,5.42
2018-09-19T08:43:46.916Z,3.87
2018-09-19T08:45:51.639Z,2.77
2018-09-19T08:47:55.503Z,4.47
2018-09-19T08:50:00.300Z,3.90
2018-09-19T08:52:04.430Z,5.50
2018-09-19T08:54:08.004Z,3.75
2018-09-19T08:56:15.725Z,5.30
2018-09-19T08:58:19.797Z,2.60
2018-09-19T09:00:23.639Z,4.15
2018-09-19T09:02:27.942Z,4.95
2018-09-19T09:04:32.563Z,3.33
2018-09-19T09:06:36.190Z,4.10
2018-09-19T09:08:39.771Z,3.37
2018-09-19T09:10:43.491Z,5.80
2018-09-19T09:12:47.271Z,2.63
2018-09-19T09:14:51.067Z,4.10
2018-09-19T09:16:54.749Z,3.43
2018-09-19T09:18:58.518Z,4.80
2018-09-19T09:21:04.123Z,3.53
2018-09-19T09:23:08.333Z,4.62
2018-09-19T09:25:12.131Z,3.60
2018-09-19T09:27:16.472Z,2.62
2018-09-19T09:29:21.835Z,5.53
2018-09-19T09:31:26.828Z,3.22
2018-09-19T09:33:34.895Z,3.45
2018-09-19T09:35:41.391Z,3.17
2018-09-19T09:37:47.016Z,4.03
2018-09-19T09:39:50.668Z,6.25
2018-09-19T09:41:54.833Z,4.50
2018-09-19T09:43:58.507Z,3.47
2018-09-19T09:46:05.774Z,3.02
2018-09-19T09:48:10.174Z,6.25
2018-09-19T09:50:15.402Z,3.42
2018-09-19T09:52:23.719Z,3.58
2018-09-19T09:54:29.199Z,2.92
2018-09-19T09:56:33.468Z,4.55
2018-09-19T09:58:38.890Z,5.47
2018-09-19T10:00:44.016Z,3.55
2018-09-19T10:02:51.734Z,4.73
2018-09-19T10:05:10.523Z,6.17
2018-09-19T10:07:15.597Z,4.10
2018-09-19T10:09:20.534Z,4.30
2018-09-19T10:11:24.344Z,4.80
2018-09-19T10:13:28.466Z,4.87
2018-09-19T10:15:32.208Z,3.30
2018-09-19T10:17:35.913Z,5.00
2018-09-19T10:19:39.683Z,3.73
2018-09-19T10:21:43.574Z,3.33
2018-09-19T10:23:47.892Z,4.57
2018-09-19T10:25:51.638Z,5.73
2018-09-19T10:27:55.483Z,3.83
2018-09-19T10:29:59.298Z,3.20
2018-09-19T10:32:03.004Z,3.93
2018-09-19T10:34:06.706Z,3.47
2018-09-19T10:36:10.598Z,8.83
2018-09-19T10:38:19.491Z,5.73
2018-09-19T10:40:24.195Z,5.37
2018-09-19T10:42:29.246Z,5.27
2018-09-19T10:44:33.260Z,3.57
2018-09-19T10:46:37.228Z,5.43
2018-09-19T10:48:41.084Z,3.10
2018-09-19T10:50:45.040Z,6.47
2018-09-19T10:52:48.835Z,4.97
2018-09-19T10:54:52.892Z,7.17
2018-09-19T10:56:56.794Z,3.60
2018-09-19T10:59:03.011Z,3.80
2018-09-19T11:01:06.921Z,3.90
2018-09-19T11:03:11.205Z,5.93
2018-09-19T11:05:14.937Z,4.45
2018-09-19T11:07:18.798Z,3.37
2018-09-19T11:09:24.054Z,6.17
2018-09-19T11:11:27.746Z,4.27
2018-09-19T11:13:31.447Z,4.58
2018-09-19T11:15:35.655Z,5.47
2018-09-19T11:17:39.486Z,3.00
2018-09-19T11:19:43.228Z,3.77
2018-09-19T11:21:48.385Z,3.42
2018-09-19T11:23:51.944Z,3.30
2018-09-19T11:25:55.820Z,3.17
2018-09-19T11:27:59.529Z,3.83
2018-09-19T11:30:03.647Z,5.23
2018-09-19T11:32:07.379Z,7.17
2018-09-19T11:34:11.202Z,3.93
2018-09-19T11:36:14.816Z,4.03
2018-09-19T11:38:18.500Z,5.77
2018-09-19T11:40:22.927Z,4.33
2018-09-19T11:42:26.578Z,4.23
2018-09-19T11:44:30.170Z,7.10
2018-09-19T11:46:33.858Z,3.87
2018-09-19T11:48:37.486Z,5.87
2018-09-19T11:50:41.751Z,3.63
2018-09-19T11:52:45.606Z,5.17
2018-09-19T11:54:49.405Z,3.30
2018-09-19T11:56:53.088Z,5.00
2018-09-19T11:58:56.745Z,4.50
2018-09-19T12:01:00.393Z,3.13
2018-09-19T12:03:04.209Z,4.30
2018-09-19T12:05:07.955Z,5.30
2018-09-19T12:07:11.551Z,5.23
2018-09-19T12:09:17.221Z,5.30
2018-09-19T12:11:21.436Z,5.83
2018-09-19T12:13:25.088Z,5.67
2018-09-19T12:15:28.720Z,5.23
2018-09-19T12:17:32.693Z,6.13
2018-09-19T12:19:36.367Z,3.63
2018-09-19T12:21:40.101Z,3.77
2018-09-19T12:23:44.724Z,4.23
2018-09-19T12:25:48.470Z,6.33
2018-09-19T12:27:52.266Z,3.80
2018-09-19T12:29:56.605Z,4.33
2018-09-19T12:32:00.691Z,14.83
2018-09-19T12:34:04.372Z,4.33
2018-09-19T12:36:07.988Z,6.63
2018-09-19T12:38:12.050Z,3.67
2018-09-19T12:40:17.312Z,3.73
2018-09-19T12:42:22.567Z,3.10
2018-09-19T12:44:26.254Z,3.13
2018-09-19T12:46:29.839Z,3.60
2018-09-19T12:48:33.951Z,5.87
2018-09-19T12:50:38.906Z,4.63
2018-09-19T12:52:42.400Z,4.37
2018-09-19T12:54:49.775Z,5.70
2018-09-19T12:56:53.752Z,5.93
2018-09-19T12:58:57.970Z,5.23
2018-09-19T13:01:01.783Z,4.20
2018-09-19T13:03:06.361Z,3.80
2018-09-19T13:05:10.145Z,6.20
2018-09-19T13:07:14.004Z,3.47
2018-09-19T13:09:17.949Z,4.50
2018-09-19T13:11:24.610Z,3.73
2018-09-19T13:13:28.368Z,5.53
2018-09-19T13:15:32.967Z,3.40
2018-09-19T13:17:36.602Z,5.37
2018-09-19T13:19:40.328Z,4.03
2018-09-19T13:21:44.011Z,4.53
2018-09-19T13:23:47.725Z,2.73
2018-09-19T13:25:52.688Z,5.13
2018-09-19T13:27:56.466Z,3.53
2018-09-19T13:30:00.148Z,3.87
2018-09-19T13:32:04.806Z,4.20
2018-09-19T13:34:08.789Z,4.47
2018-09-19T13:36:12.446Z,4.53
2018-09-19T13:38:16.477Z,4.63
2018-09-19T13:40:20.161Z,3.47
2018-09-19T13:42:23.794Z,3.23
2018-09-19T13:44:27.418Z,4.30
2018-09-19T13:46:32.388Z,4.97
2018-09-19T13:48:36.132Z,5.90
2018-09-19T13:51:15.933Z,5.23
2018-09-19T13:53:22.995Z,5.90
2018-09-19T13:55:26.964Z,3.43
2018-09-19T13:57:30.627Z,4.43
2018-09-19T13:59:34.228Z,5.07
2018-09-19T14:01:37.925Z,4.83
2018-09-19T14:03:41.644Z,3.20
2018-09-19T14:05:45.360Z,3.50
2018-09-19T14:07:48.949Z,4.07
2018-09-19T14:09:52.495Z,5.43
2018-09-19T14:11:56.044Z,4.83
2018-09-19T14:14:00.222Z,5.27
2018-09-19T14:16:04.143Z,3.40
2018-09-19T14:18:08.316Z,5.63
2018-09-19T14:20:12.962Z,4.40
2018-09-19T14:22:16.504Z,3.93
2018-09-19T14:24:19.978Z,4.17
2018-09-19T14:26:24.004Z,4.07
2018-09-19T14:28:27.542Z,4.83
2018-09-19T14:30:31.250Z,5.10
2018-09-19T14:32:34.798Z,9.07
2018-09-19T14:34:38.334Z,4.27
2018-09-19T14:36:41.928Z,5.97
2018-09-19T14:38:45.473Z,6.73
2018-09-19T14:40:48.997Z,4.30
2018-09-19T14:42:52.492Z,5.37
2018-09-19T14:44:55.952Z,6.93
2018-09-19T14:46:59.471Z,5.97
2018-09-19T14:49:03.030Z,4.60
2018-09-19T14:51:06.607Z,4.63
2018-09-19T14:53:10.137Z,7.40
2018-09-19T14:55:13.668Z,5.13
2018-09-19T14:57:17.208Z,5.43
2018-09-19T14:59:20.737Z,4.43
2018-09-19T15:01:24.652Z,6.20
2018-09-19T15:03:28.184Z,7.13
2018-09-19T15:05:31.849Z,5.57
2018-09-19T15:07:35.512Z,5.30
2018-09-19T15:09:39.027Z,5.07
2018-09-19T15:11:42.557Z,5.93
2018-09-19T15:13:46.072Z,4.87
2018-09-19T15:15:49.636Z,6.17
2018-09-19T15:17:53.512Z,3.60
2018-09-19T15:19:56.967Z,6.97
2018-09-19T15:22:00.569Z,4.47
2018-09-19T15:24:04.082Z,3.93
2018-09-19T15:26:07.973Z,5.10
2018-09-19T15:28:11.468Z,4.37
2018-09-19T15:30:14.988Z,7.43
2018-09-19T15:32:18.524Z,4.00
2018-09-19T15:34:22.126Z,7.50
2018-09-19T15:36:25.597Z,4.37
2018-09-19T15:38:29.175Z,4.03
2018-09-19T15:40:32.816Z,5.83
2018-09-19T15:42:36.389Z,4.00
2018-09-19T15:44:40.423Z,4.73
2018-09-19T15:46:43.884Z,6.23
2018-09-19T15:48:47.522Z,4.27
2018-09-19T15:50:51.097Z,6.03
2018-09-19T15:52:54.633Z,4.27
2018-09-19T15:54:58.164Z,5.60
2018-09-19T15:57:01.666Z,7.13
2018-09-19T15:59:05.499Z,4.33
2018-09-19T16:01:09.124Z,4.40
2018-09-19T16:03:13.004Z,4.37
2018-09-19T16:05:16.520Z,6.77
2018-09-19T16:07:20.129Z,7.03
2018-09-19T16:09:23.625Z,7.07
2018-09-19T16:11:27.344Z,5.57
2018-09-19T16:13:30.873Z,5.47
2018-09-19T16:15:34.485Z,4.67
2018-09-19T16:17:38.012Z,4.20
2018-09-19T16:19:41.542Z,5.00
2018-09-19T16:21:45.039Z,6.23
2018-09-19T16:23:48.576Z,5.57
2018-09-19T16:25:52.094Z,5.50
2018-09-19T16:27:55.596Z,5.87
2018-09-19T16:29:59.075Z,5.10
2018-09-19T16:32:02.623Z,4.23
2018-09-19T16:34:06.515Z,6.47
2018-09-19T16:36:10.037Z,7.50
2018-09-19T16:38:13.550Z,4.17
2018-09-19T16:40:17.103Z,6.43
2018-09-19T16:42:20.590Z,6.63
2018-09-19T16:44:24.168Z,5.33
2018-09-19T16:46:27.726Z,4.67
2018-09-19T16:48:31.314Z,6.87
2018-09-19T16:50:34.828Z,5.10
2018-09-19T16:52:38.341Z,6.47
2018-09-19T16:54:42.020Z,4.80
2018-09-19T16:56:45.603Z,7.57
2018-09-19T16:58:49.161Z,5.03
2018-09-19T17:00:52.795Z,6.53
2018-09-19T17:02:56.416Z,4.70
2018-09-19T17:04:59.944Z,5.10
2018-09-19T17:07:03.491Z,9.77
2018-09-19T17:09:08.696Z,5.50
2018-09-19T17:11:12.192Z,5.77
2018-09-19T17:13:15.734Z,6.37
2018-09-19T17:15:19.366Z,6.07
2018-09-19T17:17:23.070Z,6.53
2018-09-19T17:19:26.564Z,7.47
2018-09-19T17:21:30.601Z,5.27
2018-09-19T17:23:34.115Z,6.37
2018-09-19T17:25:37.611Z,5.17
2018-09-19T17:27:41.311Z,4.83
2018-09-19T17:29:44.816Z,5.50
2018-09-19T17:31:48.340Z,5.67
2018-09-19T17:33:51.874Z,10.70
2018-09-19T17:35:55.396Z,11.07
2018-09-19T17:37:59.250Z,9.23
2018-09-19T17:40:03.121Z,9.00
2018-09-19T17:42:07.844Z,7.40
2018-09-19T17:44:11.464Z,10.50
2018-09-19T17:46:15.380Z,9.20
2018-09-19T17:48:19.307Z,10.37
2018-09-19T17:50:22.829Z,9.30
2018-09-19T17:52:26.376Z,12.30
2018-09-19T17:54:29.923Z,6.83
2018-09-19T17:56:33.433Z,5.97
2018-09-19T17:58:37.049Z,8.33
2018-09-19T18:00:40.575Z,8.37
2018-09-19T18:02:44.310Z,7.23
2018-09-19T18:04:47.898Z,9.03
2018-09-19T18:06:51.393Z,8.37
2018-09-19T18:08:54.955Z,7.33
2018-09-19T18:10:58.459Z,8.20
2018-09-19T18:13:02.036Z,10.17
2018-09-19T18:15:05.997Z,10.63
2018-09-19T18:17:09.536Z,8.27
2018-09-19T18:19:13.129Z,9.93
2018-09-19T18:21:16.673Z,11.30
2018-09-19T18:23:20.252Z,11.50
2018-09-19T18:25:23.984Z,9.23
2018-09-19T18:27:27.496Z,6.97
2018-09-19T18:29:31.081Z,7.10
2018-09-19T18:31:34.591Z,5.90
2018-09-19T18:33:38.309Z,7.53
2018-09-19T18:35:41.782Z,7.10
2018-09-19T18:37:45.277Z,7.43
2018-09-19T18:39:48.876Z,9.30
2018-09-19T18:41:52.365Z,9.00
2018-09-19T18:43:55.887Z,7.93
2018-09-19T18:45:59.383Z,7.00
2018-09-19T18:48:02.888Z,8.13
2018-09-19T18:50:13.215Z,7.90
2018-09-19T18:52:16.707Z,7.60
2018-09-19T18:54:21.111Z,7.97
2018-09-19T18:56:24.605Z,9.03
2018-09-19T18:58:28.106Z,6.77
2018-09-19T19:00:31.708Z,6.87
2018-09-19T19:02:35.209Z,5.93
2018-09-19T19:04:38.738Z,7.83
2018-09-19T19:06:42.629Z,5.30
2018-09-19T19:08:46.184Z,6.67
2018-09-19T19:10:49.699Z,6.27
2018-09-19T19:12:53.251Z,8.97
2018-09-19T19:14:56.807Z,8.73
2018-09-19T19:17:00.461Z,8.43
2018-09-19T19:19:04.019Z,9.03
2018-09-19T19:21:07.465Z,6.60
2018-09-19T19:23:10.935Z,6.53
2018-09-19T19:25:14.458Z,6.63
2018-09-19T19:27:17.971Z,8.07
2018-09-19T19:29:21.500Z,8.10
2018-09-19T19:31:25.012Z,6.30
2018-09-19T19:33:28.581Z,10.20
2018-09-19T19:35:32.925Z,7.90
2018-09-19T19:37:36.463Z,9.60
2018-09-19T19:39:40.157Z,13.53
2018-09-19T19:41:43.686Z,10.90
2018-09-19T19:43:47.214Z,10.73
2018-09-19T19:45:50.732Z,11.20
2018-09-19T19:47:54.271Z,9.53
2018-09-19T19:49:57.789Z,8.93
2018-09-19T19:52:01.308Z,7.83
2018-09-19T19:54:04.865Z,10.33
2018-09-19T19:56:08.371Z,8.07
2018-09-19T19:58:11.876Z,7.27
2018-09-19T20:00:15.385Z,6.60
2018-09-19T20:02:18.956Z,11.27
2018-09-19T20:04:22.480Z,8.37
2018-09-19T20:06:26.009Z,8.03
2018-09-19T20:08:29.602Z,8.60
2018-09-19T20:10:33.198Z,7.20
2018-09-19T20:12:36.934Z,7.63
2018-09-19T20:14:40.620Z,7.50
2018-09-19T20:16:44.543Z,7.27
2018-09-19T20:18:48.038Z,6.80
2018-09-19T20:20:51.526Z,7.00
2018-09-19T20:22:55.036Z,6.20
2018-09-19T20:24:58.556Z,9.17
2018-09-19T20:27:02.032Z,7.10
2018-09-19T20:29:05.539Z,7.80
2018-09-19T20:31:09.034Z,7.77
2018-09-19T20:33:12.567Z,6.90
2018-09-19T20:35:16.110Z,7.83
2018-09-19T20:37:19.579Z,8.07
2018-09-19T20:39:23.068Z,7.43
2018-09-19T20:41:26.663Z,7.43
2018-09-19T20:43:30.199Z,7.50
2018-09-19T20:45:33.762Z,10.93
2018-09-19T20:47:37.236Z,9.03
2018-09-19T20:49:40.730Z,7.73
2018-09-19T20:51:44.272Z,9.83
2018-09-19T20:53:47.790Z,8.20
2018-09-19T20:55:51.300Z,7.57
2018-09-19T20:57:54.787Z,7.70
2018-09-19T20:59:58.325Z,8.50
2018-09-19T21:02:01.834Z,8.03
2018-09-19T21:04:05.338Z,7.57
2018-09-19T21:06:08.913Z,6.70
2018-09-19T21:08:12.412Z,9.60
2018-09-19T21:10:15.971Z,10.00
2018-09-19T21:12:19.510Z,8.80
2018-09-19T21:14:23.205Z,10.50
2018-09-19T21:16:26.787Z,7.67
2018-09-19T21:18:30.349Z,8.00
2018-09-19T21:20:33.917Z,7.70
2018-09-19T21:22:37.675Z,8.77
2018-09-19T21:24:41.282Z,8.73
2018-09-19T21:26:44.849Z,7.77
2018-09-19T21:28:48.377Z,10.93
2018-09-19T21:30:51.879Z,8.63
2018-09-19T21:32:55.357Z,11.40
2018-09-19T21:34:58.812Z,7.33
2018-09-19T21:37:02.336Z,9.57
2018-09-19T21:39:08.648Z,9.13
2018-09-19T21:41:12.174Z,8.57
2018-09-19T21:43:15.685Z,8.37
2018-09-19T21:45:19.184Z,8.70
2018-09-19T21:47:22.673Z,8.73
2018-09-19T21:49:26.160Z,8.63
2018-09-19T21:51:29.690Z,8.90
2018-09-19T21:53:33.147Z,8.67
2018-09-19T21:55:36.666Z,8.50
2018-09-19T21:57:40.152Z,9.30
2018-09-19T21:59:43.676Z,8.87
2018-09-19T22:01:51.352Z,8.90
2018-09-19T22:03:54.866Z,8.83
2018-09-19T22:05:58.361Z,8.73
2018-09-19T22:08:01.889Z,9.33
2018-09-19T22:10:06.126Z,9.80
2018-09-19T22:12:10.440Z,8.90
2018-09-19T22:14:13.979Z,11.80
2018-09-19T22:16:17.562Z,10.83
2018-09-19T22:18:21.076Z,8.53
2018-09-19T22:20:24.567Z,11.27
2018-09-19T22:22:28.144Z,10.20
2018-09-19T22:24:31.721Z,8.90
2018-09-19T22:26:35.835Z,8.23
2018-09-19T22:28:39.345Z,8.30
2018-09-19T22:30:42.858Z,9.50
2018-09-19T22:32:46.364Z,8.60
2018-09-19T22:34:49.831Z,8.83
2018-09-19T22:36:53.344Z,8.77
2018-09-19T22:38:56.835Z,8.53
2018-09-19T22:41:00.378Z,8.63
2018-09-19T22:43:03.923Z,9.00
2018-09-19T22:45:07.442Z,8.57
2018-09-19T22:47:10.954Z,10.03
2018-09-19T22:49:14.470Z,8.40
2018-09-19T22:51:18.040Z,9.20
2018-09-19T22:53:21.534Z,8.77
2018-09-19T22:55:25.047Z,10.93
2018-09-19T22:57:28.536Z,9.60
2018-09-19T22:59:32.031Z,9.07
2018-09-19T23:01:35.559Z,8.93
2018-09-19T23:03:39.057Z,9.57
2018-09-19T23:05:42.512Z,13.03
2018-09-19T23:07:46.081Z,10.43
2018-09-19T23:09:49.549Z,11.93
2018-09-19T23:11:53.071Z,12.27
2018-09-19T23:13:56.571Z,9.87
2018-09-19T23:16:00.090Z,9.50
2018-09-19T23:18:03.596Z,10.33
2018-09-19T23:20:07.838Z,10.23
2018-09-19T23:22:11.374Z,9.63
2018-09-19T23:24:14.846Z,9.60
2018-09-19T23:26:18.425Z,9.73
2018-09-19T23:28:21.921Z,10.03
2018-09-19T23:30:25.416Z,9.77
2018-09-19T23:32:28.930Z,9.93
2018-09-19T23:34:32.759Z,10.07
2018-09-19T23:36:36.313Z,13.13
2018-09-19T23:38:40.169Z,10.97
2018-09-19T23:40:43.696Z,10.47
2018-09-19T23:42:47.289Z,13.07
2018-09-19T23:44:50.782Z,11.90
2018-09-19T23:46:54.293Z,10.30
2018-09-19T23:48:57.767Z,9.97
2018-09-19T23:51:01.314Z,10.60
2018-09-19T23:53:04.866Z,12.30
2018-09-19T23:55:08.747Z,11.20
2018-09-19T23:57:12.295Z,10.70
2018-09-19T23:59:15.791Z,9.90
